ADDS METAR Data INFO
IDs: Format: Raw Decoded Include TAF

Data at: 0402 UTC 19 Jul 2018

PGSN 190354Z 06009KT 10SM FEW022 FEW029 30/27 A2978 RMK AO2 SLP101 T03000267 $
PGSN 190254Z 05008KT 10SM SCT019 SCT025 SCT031 29/26 A2979 RMK AO2 RAB01E12 SLP105 P0000 60000 T02940261 58007 $
PGSN 190202Z 07009KT 10SM -RA SCT019 SCT025 SCT031 29/27 A2980 RMK AO2 RAB01 P0000 T02940267 $
PGSN 190154Z COR 07008KT 10SM FEW019 SCT024 30/27 A2980 RMK AO2 SLP108 T03000267 $
PGSN 190054Z 06010KT 10SM SCT016 SCT023 30/27 A2981 RMK AO2 SLP112 T03000267 $
PGSN 182354Z 33006KT 10SM SCT016 30/27 A2981 RMK AO2 SLP112 60000 T03000272 10306 20267 52007 $
PGSN 182254Z 02006KT 10SM SCT016 SCT040 30/27 A2981 RMK AO2 SLP112 T03000267 $
PGSN 182154Z 02005KT 10SM SCT016 SCT040 28/27 A2979 RMK AO2 SLP105 T02830267 $
PGSN 182054Z 01003KT 10SM SCT018 27/26 A2979 RMK AO2 SLP105 60000 T02720261 53003 $
PGSN 181954Z 04003KT 10SM FEW016 SCT055 27/26 A2977 RMK AO2 SLP098 T02670261 $
PGSN 181854Z 00000KT 10SM SCT016 SCT044 27/26 A2977 RMK AO2 RAE14 SLP098 P0000 T02670261 $
PGSN 181754Z 02003KT 10SM -RA FEW016 SCT021 27/26 A2978 RMK AO2 RAB51 SLP101 P0000 60000 T02720261 10272 20261 56010 $
PGSN 181654Z 36003KT 10SM SCT016 27/26 A2979 RMK AO2 SLP105 T02670261 $
PGSN 181554Z 35004KT 10SM SCT016 26/26 A2979 RMK AO2 SLP105 T02610256 $
PGSN 181454Z 04004KT 10SM SCT016 27/26 A2981 RMK AO2 SLP112 T02720261 $
PGSN 181354Z COR 00000KT 10SM FEW015 FEW027 27/27 A2982 RMK AO2 SLPNO T02720267 403110256 $
PGSN 181254Z 09004KT 10SM FEW015 27/26 RMK AO2 SLPNO T02720261 $
PGSN 181154Z 08004KT 10SM CLR 27/26 RMK AO2 SLPNO T02670261 10300 20267 $
PGSN 181054Z 05003KT 10SM CLR 27/26 RMK AO2 SLPNO T02720256 $
PGSN 180954Z COR 09004KT 10SM CLR 28/26 A2982 RMK AO2 SLPNO T02780256 $
PGSN 180854Z 09005KT 10SM CLR 28/25 A2978 RMK AO2 SLP101 T02780250 $
PGSN 180754Z 09006KT 10SM CLR 29/25 RMK AO2 SLPNO T02940250 $
PGSN 180654Z 09009KT 10SM CLR 30/25 A2975 RMK AO2 SLP091 T03000250 $
PGSN 180554Z 10008KT 10SM FEW018 30/26 A2975 RMK AO2 SLP091 T03000261 10311 20300 57010 $
PGSN 180454Z 10010KT 10SM SCT016 SCT027 30/26 A2976 RMK AO2 SLP095 T03000261 $
PGSN 180354Z 07010KT 10SM SCT016 SCT027 31/27 A2977 RMK AO2 SLP098 T03060267 $
PGSN 180254Z 07012KT 10SM SCT016 31/27 A2978 RMK AO2 SLP101 T03060267 58017 $
PGSN 180154Z 09008KT 10SM SCT020 31/26 A2980 RMK AO2 SLP108 T03060261 $
PGSN 180054Z 09008KT 10SM SCT020 30/26 A2982 RMK AO2 SLP115 T03000256 $
PGSN 172354Z 07008KT 10SM SCT018 30/26 A2983 RMK AO2 SLP119 T03000261 10306 20256 54000 $
PGSN 172254Z 05006KT 10SM SCT018 29/27 A2983 RMK AO2 SLP119 T02940267 $
PGSN 172154Z 04006KT 10SM SCT015 29/27 A2983 RMK AO2 SLP119 T02890267 $
PGSN 172054Z 00000KT 10SM SCT016 27/26 A2983 RMK AO2 SLP119 T02720261 53010 $
PGSN 171954Z 36004KT 10SM SCT018 26/26 A2981 RMK AO2 SLP112 T02610256 $
PGSN 171854Z 00000KT 10SM CLR 26/26 A2980 RMK AO2 SLP108 T02560256 $
PGSN 171754Z 00000KT 10SM FEW020 27/26 A2980 RMK AO2 SLP108 T02670256 10272 20261 56007 $
PGSN 171654Z 02003KT 10SM FEW020 27/26 A2980 RMK AO2 SLP108 T02670261 $